North Creek, NY (12853)

6:24 AM EDT on October 24, 2014 (GMT -0400)
Old River Road | Change Station
CLOSE
Current Station
Personal Weather Station
Location: North Creek, NY
Elevation: 1030 ft
Nearby Weather Stations

Elev 1030 ft 43.71 °N, 73.99 °W | Updated 5 seconds ago

Overcast
Overcast
43.6 °F
Feels Like 44 °F
N
0.0
Wind Variable Wind from East
Gusts 5.0 mph

Today
High -- | Low -- °F
--% Chance of Precip.
Yesterday
High -- | Low -- °F
Precip. -- in
7:21 AM 5:57 PM
New Moon, 0% visible
Pressure 29.84 in
Visibility 5.0 miles
Clouds Mostly Cloudy 400 ft
Overcast 1000 ft
Windchill 44 °F
Dew Point 41 °F
Humidity 92%
Rainfall 0.02 in
Snow Depth Not available.
UV 0 out of 12
Pollen .10 out of 12
Air Quality Not available.
Flu Activity Sporadic
SPECI KGFL 241016Z AUTO 06004KT 5SM BR BKN004 OVC010 07/06 A2984 RMK AO2 RAE16 P0001 T00670061

More Conditions Fewer Conditions

Pressure 29.84 in
Visibility 5.0 miles
Clouds Mostly Cloudy 400 ft
Overcast 1000 ft
Windchill 44 °F
Dew Point 41 °F
Humidity 92%
Rainfall 0.02 in
Snow Depth Not available.
UV 0 out of 12
Pollen .10 out of 12
Air Quality Not available.
Flu Activity Sporadic
SPECI KGFL 241016Z AUTO 06004KT 5SM BR BKN004 OVC010 07/06 A2984 RMK AO2 RAE16 P0001 T00670061

More Conditions Fewer Conditions

10-Day Weather Forecast

Almanac

Astronomy

Oct. 24, 2014 Rise Set
Actual Time 7:21 AM EDT 5:57 PM EDT
Civil Twilight 6:51 AM EDT 6:27 PM EDT
Nautical Twilight 6:18 AM EDT 7:00 PM EDT
Astronomical Twilight 5:44 AM EDT 7:33 PM EDT
Moon 7:58 AM EDT 6:34 PM EDT
Length of Visible Light 11h 35m
Length of Day
10h 36m
Tomorrow will be 2m 47s shorter.
New Moon, 0% of the Moon is Illuminated
Today
New Moon
Oct 30
First Quarter
Nov 6
Full
Nov 14
Last Quarter
Nov 22
New

Today's Extremes

State Highs State Lows

Community

WunderPhotos

Upload Photos

1,764,513 photos uploaded!

WunderBlogs® & News

Nearby

Air Quality

  Air Quality AQ Index Pollutant
Friday Good
PM2.5

Snow Depth

Station Depth Elevation
No new snow has been reported.

Earthquake Activity

City Distance Mag. Time & Date
No recent earthquake activity has been reported nearby.
Minimum magnitude displayed is 2.5.

Coastal Water Temperatures

Place Temperature
No Stations Reporting

Nearby Weather Stations